sensor_id;sensor_type;location;lat;lon;timestamp;P1;durP1;ratioP1;P2;durP2;ratioP2
36497;SDS011;22513;51.222;6.480;2022-11-03T00:01:51;16.25;;;2.80;;
36497;SDS011;22513;51.222;6.480;2022-11-03T00:04:20;13.52;;;3.20;;
36497;SDS011;22513;51.222;6.480;2022-11-03T00:06:47;10.02;;;2.67;;
36497;SDS011;22513;51.222;6.480;2022-11-03T00:09:15;11.38;;;3.05;;
36497;SDS011;22513;51.222;6.480;2022-11-03T00:11:43;17.33;;;3.63;;
36497;SDS011;22513;51.222;6.480;2022-11-03T00:14:10;12.55;;;2.95;;
36497;SDS011;22513;51.222;6.480;2022-11-03T00:16:36;10.80;;;2.83;;
36497;SDS011;22513;51.222;6.480;2022-11-03T00:19:03;11.48;;;2.70;;
36497;SDS011;22513;51.222;6.480;2022-11-03T00:21:30;13.95;;;2.70;;
36497;SDS011;22513;51.222;6.480;2022-11-03T00:23:55;9.68;;;2.55;;
36497;SDS011;22513;51.222;6.480;2022-11-03T00:26:22;15.52;;;3.72;;
36497;SDS011;22513;51.222;6.480;2022-11-03T00:28:49;16.23;;;3.72;;
36497;SDS011;22513;51.222;6.480;2022-11-03T00:31:18;12.18;;;3.20;;
36497;SDS011;22513;51.222;6.480;2022-11-03T00:33:45;10.23;;;2.78;;
36497;SDS011;22513;51.222;6.480;2022-11-03T00:36:15;12.48;;;3.67;;
36497;SDS011;22513;51.222;6.480;2022-11-03T00:38:42;11.23;;;4.30;;
36497;SDS011;22513;51.222;6.480;2022-11-03T00:41:09;16.02;;;3.15;;
36497;SDS011;22513;51.222;6.480;2022-11-03T00:43:36;12.38;;;2.92;;
36497;SDS011;22513;51.222;6.480;2022-11-03T00:46:02;11.52;;;3.00;;
36497;SDS011;22513;51.222;6.480;2022-11-03T00:48:29;13.65;;;2.95;;
36497;SDS011;22513;51.222;6.480;2022-11-03T00:53:24;15.82;;;2.50;;
36497;SDS011;22513;51.222;6.480;2022-11-03T00:55:50;12.52;;;3.38;;
36497;SDS011;22513;51.222;6.480;2022-11-03T00:58:15;7.32;;;2.30;;
36497;SDS011;22513;51.222;6.480;2022-11-03T01:00:41;9.80;;;2.97;;
36497;SDS011;22513;51.222;6.480;2022-11-03T01:03:06;12.93;;;3.10;;
36497;SDS011;22513;51.222;6.480;2022-11-03T01:05:32;13.32;;;3.33;;
36497;SDS011;22513;51.222;6.480;2022-11-03T01:08:16;15.38;;;3.58;;
36497;SDS011;22513;51.222;6.480;2022-11-03T01:10:42;10.32;;;2.97;;
36497;SDS011;22513;51.222;6.480;2022-11-03T01:13:26;7.70;;;2.90;;
36497;SDS011;22513;51.222;6.480;2022-11-03T01:15:55;12.25;;;3.20;;
36497;SDS011;22513;51.222;6.480;2022-11-03T01:18:21;14.88;;;3.50;;
36497;SDS011;22513;51.222;6.480;2022-11-03T01:20:52;14.32;;;3.63;;
36497;SDS011;22513;51.222;6.480;2022-11-03T01:23:22;16.13;;;3.85;;
36497;SDS011;22513;51.222;6.480;2022-11-03T01:25:48;10.45;;;3.00;;
36497;SDS011;22513;51.222;6.480;2022-11-03T01:28:14;11.02;;;3.13;;
36497;SDS011;22513;51.222;6.480;2022-11-03T01:30:40;16.02;;;3.05;;
36497;SDS011;22513;51.222;6.480;2022-11-03T01:33:06;16.88;;;3.60;;
36497;SDS011;22513;51.222;6.480;2022-11-03T01:35:31;11.07;;;2.95;;
36497;SDS011;22513;51.222;6.480;2022-11-03T01:37:57;17.00;;;3.88;;
36497;SDS011;22513;51.222;6.480;2022-11-03T01:40:22;10.50;;;3.00;;
36497;SDS011;22513;51.222;6.480;2022-11-03T01:42:48;9.63;;;3.13;;
36497;SDS011;22513;51.222;6.480;2022-11-03T01:45:14;9.70;;;3.00;;
36497;SDS011;22513;51.222;6.480;2022-11-03T01:47:40;14.90;;;3.65;;
36497;SDS011;22513;51.222;6.480;2022-11-03T01:50:09;14.80;;;3.30;;
36497;SDS011;22513;51.222;6.480;2022-11-03T01:52:43;13.07;;;3.13;;
36497;SDS011;22513;51.222;6.480;2022-11-03T01:55:18;8.48;;;3.17;;
36497;SDS011;22513;51.222;6.480;2022-11-03T01:57:54;12.77;;;4.32;;
36497;SDS011;22513;51.222;6.480;2022-11-03T02:00:25;12.15;;;3.83;;
36497;SDS011;22513;51.222;6.480;2022-11-03T02:02:51;13.38;;;4.32;;
36497;SDS011;22513;51.222;6.480;2022-11-03T02:05:17;13.93;;;3.83;;
36497;SDS011;22513;51.222;6.480;2022-11-03T02:07:46;8.50;;;3.47;;
36497;SDS011;22513;51.222;6.480;2022-11-03T02:10:17;11.50;;;2.75;;
36497;SDS011;22513;51.222;6.480;2022-11-03T02:12:43;16.00;;;3.10;;
36497;SDS011;22513;51.222;6.480;2022-11-03T02:15:09;13.57;;;4.57;;
36497;SDS011;22513;51.222;6.480;2022-11-03T02:17:38;14.50;;;2.83;;
36497;SDS011;22513;51.222;6.480;2022-11-03T02:20:06;10.07;;;4.03;;
36497;SDS011;22513;51.222;6.480;2022-11-03T02:28:09;11.68;;;2.80;;
36497;SDS011;22513;51.222;6.480;2022-11-03T02:30:49;14.45;;;2.83;;
36497;SDS011;22513;51.222;6.480;2022-11-03T02:36:31;11.25;;;3.42;;
36497;SDS011;22513;51.222;6.480;2022-11-03T02:39:51;12.52;;;3.42;;
36497;SDS011;22513;51.222;6.480;2022-11-03T02:42:11;11.05;;;2.58;;
36497;SDS011;22513;51.222;6.480;2022-11-03T02:44:38;12.75;;;3.10;;
36497;SDS011;22513;51.222;6.480;2022-11-03T02:47:07;10.90;;;2.80;;
36497;SDS011;22513;51.222;6.480;2022-11-03T02:49:38;8.02;;;3.40;;
36497;SDS011;22513;51.222;6.480;2022-11-03T02:57:52;22.67;;;3.75;;
36497;SDS011;22513;51.222;6.480;2022-11-03T03:00:38;11.18;;;2.83;;
36497;SDS011;22513;51.222;6.480;2022-11-03T03:03:29;11.48;;;3.15;;
36497;SDS011;22513;51.222;6.480;2022-11-03T03:06:03;9.25;;;2.70;;
36497;SDS011;22513;51.222;6.480;2022-11-03T03:08:33;9.98;;;2.88;;
36497;SDS011;22513;51.222;6.480;2022-11-03T03:11:02;13.23;;;2.53;;
36497;SDS011;22513;51.222;6.480;2022-11-03T03:13:29;11.25;;;3.00;;
36497;SDS011;22513;51.222;6.480;2022-11-03T03:18:56;13.73;;;3.42;;
36497;SDS011;22513;51.222;6.480;2022-11-03T03:21:33;5.75;;;2.58;;
36497;SDS011;22513;51.222;6.480;2022-11-03T03:24:07;9.98;;;2.95;;
36497;SDS011;22513;51.222;6.480;2022-11-03T03:26:49;10.65;;;2.63;;
36497;SDS011;22513;51.222;6.480;2022-11-03T03:29:19;14.43;;;2.80;;
36497;SDS011;22513;51.222;6.480;2022-11-03T03:31:51;9.77;;;2.15;;
36497;SDS011;22513;51.222;6.480;2022-11-03T03:34:20;14.05;;;3.15;;
36497;SDS011;22513;51.222;6.480;2022-11-03T03:36:49;12.80;;;4.32;;
36497;SDS011;22513;51.222;6.480;2022-11-03T03:39:17;11.57;;;2.83;;
36497;SDS011;22513;51.222;6.480;2022-11-03T03:41:45;8.50;;;2.30;;
36497;SDS011;22513;51.222;6.480;2022-11-03T03:44:12;7.15;;;2.60;;
36497;SDS011;22513;51.222;6.480;2022-11-03T03:46:43;8.93;;;2.58;;
36497;SDS011;22513;51.222;6.480;2022-11-03T03:49:11;6.78;;;2.05;;
36497;SDS011;22513;51.222;6.480;2022-11-03T03:51:37;13.02;;;3.33;;
36497;SDS011;22513;51.222;6.480;2022-11-03T03:54:03;11.90;;;3.38;;
36497;SDS011;22513;51.222;6.480;2022-11-03T03:59:00;9.10;;;2.50;;
36497;SDS011;22513;51.222;6.480;2022-11-03T04:01:25;12.52;;;3.75;;
36497;SDS011;22513;51.222;6.480;2022-11-03T04:03:51;8.98;;;2.08;;
36497;SDS011;22513;51.222;6.480;2022-11-03T04:06:16;11.60;;;3.28;;
36497;SDS011;22513;51.222;6.480;2022-11-03T04:08:42;13.55;;;2.60;;
36497;SDS011;22513;51.222;6.480;2022-11-03T04:11:07;10.70;;;3.10;;
36497;SDS011;22513;51.222;6.480;2022-11-03T04:13:51;8.52;;;2.90;;
36497;SDS011;22513;51.222;6.480;2022-11-03T04:16:36;12.10;;;2.75;;
36497;SDS011;22513;51.222;6.480;2022-11-03T04:19:20;10.43;;;3.53;;
36497;SDS011;22513;51.222;6.480;2022-11-03T04:22:04;7.18;;;2.80;;
36497;SDS011;22513;51.222;6.480;2022-11-03T04:24:45;9.13;;;2.42;;
36497;SDS011;22513;51.222;6.480;2022-11-03T04:29:54;10.85;;;2.70;;
36497;SDS011;22513;51.222;6.480;2022-11-03T04:32:25;11.38;;;2.65;;
36497;SDS011;22513;51.222;6.480;2022-11-03T04:34:52;9.20;;;2.75;;
36497;SDS011;22513;51.222;6.480;2022-11-03T04:37:18;14.88;;;3.80;;
36497;SDS011;22513;51.222;6.480;2022-11-03T04:39:44;13.35;;;2.80;;
36497;SDS011;22513;51.222;6.480;2022-11-03T04:42:16;15.48;;;2.95;;
36497;SDS011;22513;51.222;6.480;2022-11-03T04:44:45;12.77;;;3.83;;
36497;SDS011;22513;51.222;6.480;2022-11-03T04:47:12;11.00;;;4.93;;
36497;SDS011;22513;51.222;6.480;2022-11-03T04:49:38;7.10;;;2.90;;
36497;SDS011;22513;51.222;6.480;2022-11-03T04:52:15;7.72;;;2.20;;
36497;SDS011;22513;51.222;6.480;2022-11-03T04:54:43;18.92;;;3.65;;
36497;SDS011;22513;51.222;6.480;2022-11-03T04:57:11;12.45;;;3.47;;
36497;SDS011;22513;51.222;6.480;2022-11-03T04:59:38;11.05;;;2.88;;
36497;SDS011;22513;51.222;6.480;2022-11-03T05:02:10;9.02;;;3.00;;
36497;SDS011;22513;51.222;6.480;2022-11-03T05:04:39;13.35;;;2.50;;
36497;SDS011;22513;51.222;6.480;2022-11-03T05:09:41;10.25;;;2.60;;
36497;SDS011;22513;51.222;6.480;2022-11-03T05:12:07;15.65;;;3.13;;
36497;SDS011;22513;51.222;6.480;2022-11-03T05:14:33;12.55;;;2.95;;
36497;SDS011;22513;51.222;6.480;2022-11-03T05:17:01;8.05;;;2.35;;
36497;SDS011;22513;51.222;6.480;2022-11-03T05:19:35;16.40;;;3.20;;
36497;SDS011;22513;51.222;6.480;2022-11-03T05:22:03;12.80;;;3.10;;
36497;SDS011;22513;51.222;6.480;2022-11-03T05:24:30;14.77;;;3.17;;
36497;SDS011;22513;51.222;6.480;2022-11-03T05:26:56;15.65;;;3.42;;
36497;SDS011;22513;51.222;6.480;2022-11-03T05:29:25;8.10;;;2.22;;
36497;SDS011;22513;51.222;6.480;2022-11-03T05:31:59;14.25;;;3.60;;
36497;SDS011;22513;51.222;6.480;2022-11-03T05:36:54;10.02;;;2.72;;
36497;SDS011;22513;51.222;6.480;2022-11-03T05:41:58;10.57;;;3.72;;
36497;SDS011;22513;51.222;6.480;2022-11-03T05:46:56;8.02;;;3.47;;
36497;SDS011;22513;51.222;6.480;2022-11-03T05:49:22;6.85;;;2.60;;
36497;SDS011;22513;51.222;6.480;2022-11-03T05:51:48;9.30;;;4.05;;
36497;SDS011;22513;51.222;6.480;2022-11-03T05:54:26;10.82;;;2.92;;
36497;SDS011;22513;51.222;6.480;2022-11-03T05:56:56;11.13;;;3.13;;
36497;SDS011;22513;51.222;6.480;2022-11-03T05:59:23;14.68;;;3.72;;
36497;SDS011;22513;51.222;6.480;2022-11-03T06:01:51;9.05;;;3.05;;
36497;SDS011;22513;51.222;6.480;2022-11-03T06:09:18;13.38;;;3.42;;
36497;SDS011;22513;51.222;6.480;2022-11-03T06:11:46;8.50;;;2.90;;
36497;SDS011;22513;51.222;6.480;2022-11-03T06:14:14;14.57;;;3.50;;
36497;SDS011;22513;51.222;6.480;2022-11-03T06:16:48;10.32;;;3.53;;
36497;SDS011;22513;51.222;6.480;2022-11-03T06:19:21;15.80;;;4.13;;
36497;SDS011;22513;51.222;6.480;2022-11-03T06:22:02;11.90;;;3.97;;
36497;SDS011;22513;51.222;6.480;2022-11-03T06:24:38;14.45;;;3.60;;
36497;SDS011;22513;51.222;6.480;2022-11-03T06:27:03;9.40;;;2.97;;
36497;SDS011;22513;51.222;6.480;2022-11-03T06:29:29;12.77;;;3.33;;
36497;SDS011;22513;51.222;6.480;2022-11-03T06:31:57;14.70;;;4.00;;
36497;SDS011;22513;51.222;6.480;2022-11-03T06:34:31;12.80;;;3.58;;
36497;SDS011;22513;51.222;6.480;2022-11-03T06:36:57;12.93;;;3.83;;
36497;SDS011;22513;51.222;6.480;2022-11-03T06:39:26;11.35;;;3.40;;
36497;SDS011;22513;51.222;6.480;2022-11-03T06:41:52;13.90;;;3.55;;
36497;SDS011;22513;51.222;6.480;2022-11-03T06:44:19;10.63;;;3.20;;
36497;SDS011;22513;51.222;6.480;2022-11-03T06:46:46;10.43;;;3.50;;
36497;SDS011;22513;51.222;6.480;2022-11-03T06:49:20;9.95;;;3.45;;
36497;SDS011;22513;51.222;6.480;2022-11-03T06:52:22;11.63;;;3.25;;
36497;SDS011;22513;51.222;6.480;2022-11-03T06:57:25;14.73;;;3.92;;
36497;SDS011;22513;51.222;6.480;2022-11-03T06:59:51;12.15;;;4.55;;
36497;SDS011;22513;51.222;6.480;2022-11-03T07:02:27;15.32;;;3.55;;
36497;SDS011;22513;51.222;6.480;2022-11-03T07:05:21;15.02;;;3.47;;
36497;SDS011;22513;51.222;6.480;2022-11-03T07:07:52;12.13;;;3.83;;
36497;SDS011;22513;51.222;6.480;2022-11-03T07:10:32;9.23;;;3.15;;
36497;SDS011;22513;51.222;6.480;2022-11-03T07:12:58;12.00;;;4.07;;
36497;SDS011;22513;51.222;6.480;2022-11-03T07:15:29;11.93;;;5.25;;
36497;SDS011;22513;51.222;6.480;2022-11-03T07:17:58;11.23;;;3.63;;
36497;SDS011;22513;51.222;6.480;2022-11-03T07:20:25;9.52;;;3.28;;
36497;SDS011;22513;51.222;6.480;2022-11-03T07:22:51;11.20;;;3.92;;
36497;SDS011;22513;51.222;6.480;2022-11-03T07:25:19;7.97;;;3.45;;
36497;SDS011;22513;51.222;6.480;2022-11-03T07:27:49;13.82;;;2.92;;
36497;SDS011;22513;51.222;6.480;2022-11-03T07:30:19;9.30;;;3.20;;
36497;SDS011;22513;51.222;6.480;2022-11-03T07:53:34;7.80;;;2.70;;
36497;SDS011;22513;51.222;6.480;2022-11-03T07:58:59;7.72;;;2.67;;
36497;SDS011;22513;51.222;6.480;2022-11-03T08:01:48;7.70;;;2.58;;
36497;SDS011;22513;51.222;6.480;2022-11-03T08:06:45;11.65;;;3.40;;
36497;SDS011;22513;51.222;6.480;2022-11-03T08:09:12;7.78;;;2.70;;
36497;SDS011;22513;51.222;6.480;2022-11-03T08:11:38;9.48;;;2.75;;
36497;SDS011;22513;51.222;6.480;2022-11-03T08:14:03;11.10;;;2.85;;
36497;SDS011;22513;51.222;6.480;2022-11-03T08:16:29;9.77;;;3.33;;
36497;SDS011;22513;51.222;6.480;2022-11-03T08:18:55;8.60;;;2.53;;
36497;SDS011;22513;51.222;6.480;2022-11-03T08:21:20;10.50;;;2.95;;
36497;SDS011;22513;51.222;6.480;2022-11-03T08:23:46;9.80;;;2.63;;
36497;SDS011;22513;51.222;6.480;2022-11-03T08:31:15;8.25;;;2.38;;
36497;SDS011;22513;51.222;6.480;2022-11-03T08:33:41;8.80;;;2.83;;
36497;SDS011;22513;51.222;6.480;2022-11-03T08:36:07;7.35;;;2.40;;
36497;SDS011;22513;51.222;6.480;2022-11-03T08:38:33;5.03;;;2.10;;
36497;SDS011;22513;51.222;6.480;2022-11-03T08:40:59;8.40;;;2.20;;
36497;SDS011;22513;51.222;6.480;2022-11-03T08:43:25;8.40;;;2.33;;
36497;SDS011;22513;51.222;6.480;2022-11-03T08:45:51;10.50;;;2.67;;
36497;SDS011;22513;51.222;6.480;2022-11-03T08:48:24;11.15;;;3.13;;
36497;SDS011;22513;51.222;6.480;2022-11-03T08:50:51;10.10;;;2.58;;
36497;SDS011;22513;51.222;6.480;2022-11-03T08:53:24;11.63;;;2.75;;
36497;SDS011;22513;51.222;6.480;2022-11-03T08:55:54;11.25;;;3.38;;
36497;SDS011;22513;51.222;6.480;2022-11-03T08:58:20;9.05;;;2.88;;
36497;SDS011;22513;51.222;6.480;2022-11-03T09:00:46;7.00;;;2.78;;
36497;SDS011;22513;51.222;6.480;2022-11-03T09:03:13;8.25;;;2.40;;
36497;SDS011;22513;51.222;6.480;2022-11-03T09:05:39;11.43;;;4.13;;
36497;SDS011;22513;51.222;6.480;2022-11-03T09:08:05;7.30;;;2.50;;
36497;SDS011;22513;51.222;6.480;2022-11-03T09:10:31;10.20;;;2.47;;
36497;SDS011;22513;51.222;6.480;2022-11-03T09:12:57;7.90;;;3.38;;
36497;SDS011;22513;51.222;6.480;2022-11-03T09:15:22;5.95;;;2.30;;
36497;SDS011;22513;51.222;6.480;2022-11-03T09:17:48;9.80;;;2.65;;
36497;SDS011;22513;51.222;6.480;2022-11-03T09:20:14;9.63;;;2.92;;
36497;SDS011;22513;51.222;6.480;2022-11-03T09:22:39;11.75;;;3.30;;
36497;SDS011;22513;51.222;6.480;2022-11-03T09:25:05;10.10;;;2.80;;
36497;SDS011;22513;51.222;6.480;2022-11-03T09:27:31;11.30;;;3.38;;
36497;SDS011;22513;51.222;6.480;2022-11-03T09:29:57;8.82;;;2.22;;
36497;SDS011;22513;51.222;6.480;2022-11-03T09:32:23;12.00;;;4.38;;
36497;SDS011;22513;51.222;6.480;2022-11-03T09:34:49;8.77;;;2.35;;
36497;SDS011;22513;51.222;6.480;2022-11-03T09:37:15;6.43;;;2.95;;
36497;SDS011;22513;51.222;6.480;2022-11-03T09:39:41;7.50;;;2.70;;
36497;SDS011;22513;51.222;6.480;2022-11-03T09:42:07;7.50;;;2.75;;
36497;SDS011;22513;51.222;6.480;2022-11-03T09:44:35;6.93;;;3.08;;
36497;SDS011;22513;51.222;6.480;2022-11-03T09:47:02;9.00;;;2.35;;
36497;SDS011;22513;51.222;6.480;2022-11-03T09:49:32;10.60;;;2.40;;
36497;SDS011;22513;51.222;6.480;2022-11-03T09:52:00;7.35;;;2.60;;
36497;SDS011;22513;51.222;6.480;2022-11-03T09:54:27;9.63;;;2.67;;
36497;SDS011;22513;51.222;6.480;2022-11-03T09:56:55;6.43;;;2.45;;
36497;SDS011;22513;51.222;6.480;2022-11-03T09:59:24;4.55;;;2.00;;
36497;SDS011;22513;51.222;6.480;2022-11-03T10:01:50;4.78;;;2.25;;
36497;SDS011;22513;51.222;6.480;2022-11-03T10:04:19;8.25;;;2.85;;
36497;SDS011;22513;51.222;6.480;2022-11-03T10:06:56;5.63;;;2.53;;
36497;SDS011;22513;51.222;6.480;2022-11-03T10:09:23;6.53;;;2.47;;
36497;SDS011;22513;51.222;6.480;2022-11-03T10:11:50;10.13;;;2.58;;
36497;SDS011;22513;51.222;6.480;2022-11-03T10:14:18;5.55;;;2.50;;
36497;SDS011;22513;51.222;6.480;2022-11-03T10:16:46;5.90;;;2.35;;
36497;SDS011;22513;51.222;6.480;2022-11-03T10:19:20;4.53;;;2.00;;
36497;SDS011;22513;51.222;6.480;2022-11-03T10:21:45;6.22;;;1.80;;
36497;SDS011;22513;51.222;6.480;2022-11-03T10:24:11;12.18;;;2.60;;
36497;SDS011;22513;51.222;6.480;2022-11-03T10:26:42;6.10;;;2.03;;
36497;SDS011;22513;51.222;6.480;2022-11-03T10:31:52;5.65;;;1.90;;
36497;SDS011;22513;51.222;6.480;2022-11-03T10:39:35;6.00;;;1.73;;
36497;SDS011;22513;51.222;6.480;2022-11-03T10:42:01;7.53;;;2.35;;
36497;SDS011;22513;51.222;6.480;2022-11-03T10:44:28;5.13;;;1.88;;
36497;SDS011;22513;51.222;6.480;2022-11-03T10:46:55;6.53;;;1.90;;
36497;SDS011;22513;51.222;6.480;2022-11-03T10:49:22;5.55;;;1.67;;
36497;SDS011;22513;51.222;6.480;2022-11-03T10:54:14;8.98;;;2.30;;
36497;SDS011;22513;51.222;6.480;2022-11-03T10:56:41;5.53;;;2.08;;
36497;SDS011;22513;51.222;6.480;2022-11-03T10:59:18;8.30;;;2.35;;
36497;SDS011;22513;51.222;6.480;2022-11-03T11:01:46;6.40;;;2.55;;
36497;SDS011;22513;51.222;6.480;2022-11-03T11:04:16;7.85;;;2.60;;
36497;SDS011;22513;51.222;6.480;2022-11-03T11:06:43;7.72;;;1.65;;
36497;SDS011;22513;51.222;6.480;2022-11-03T11:09:11;6.57;;;2.20;;
36497;SDS011;22513;51.222;6.480;2022-11-03T11:12:30;7.88;;;2.67;;
36497;SDS011;22513;51.222;6.480;2022-11-03T11:15:03;6.50;;;1.60;;
36497;SDS011;22513;51.222;6.480;2022-11-03T11:17:52;4.47;;;1.70;;
36497;SDS011;22513;51.222;6.480;2022-11-03T11:22:53;6.88;;;2.67;;
36497;SDS011;22513;51.222;6.480;2022-11-03T11:25:19;6.15;;;2.00;;
36497;SDS011;22513;51.222;6.480;2022-11-03T11:37:48;10.98;;;2.72;;
36497;SDS011;22513;51.222;6.480;2022-11-03T11:43:34;6.20;;;2.00;;
36497;SDS011;22513;51.222;6.480;2022-11-03T11:48:38;11.40;;;2.00;;
36497;SDS011;22513;51.222;6.480;2022-11-03T11:51:07;7.97;;;2.38;;
36497;SDS011;22513;51.222;6.480;2022-11-03T11:53:41;6.63;;;2.10;;
36497;SDS011;22513;51.222;6.480;2022-11-03T11:56:09;8.20;;;1.73;;
36497;SDS011;22513;51.222;6.480;2022-11-03T11:58:41;7.20;;;2.55;;
36497;SDS011;22513;51.222;6.480;2022-11-03T12:03:55;8.57;;;2.08;;
36497;SDS011;22513;51.222;6.480;2022-11-03T12:06:36;4.45;;;1.90;;
36497;SDS011;22513;51.222;6.480;2022-11-03T12:09:19;6.60;;;2.08;;
36497;SDS011;22513;51.222;6.480;2022-11-03T12:11:52;10.77;;;2.40;;
36497;SDS011;22513;51.222;6.480;2022-11-03T12:17:29;6.47;;;1.80;;
36497;SDS011;22513;51.222;6.480;2022-11-03T12:19:44;9.00;;;1.70;;
36497;SDS011;22513;51.222;6.480;2022-11-03T12:22:54;7.57;;;2.25;;
36497;SDS011;22513;51.222;6.480;2022-11-03T12:25:05;8.23;;;2.08;;
36497;SDS011;22513;51.222;6.480;2022-11-03T12:27:51;6.82;;;2.17;;
36497;SDS011;22513;51.222;6.480;2022-11-03T12:30:17;8.27;;;2.00;;
36497;SDS011;22513;51.222;6.480;2022-11-03T12:32:43;6.85;;;2.38;;
36497;SDS011;22513;51.222;6.480;2022-11-03T12:35:10;7.00;;;2.15;;
36497;SDS011;22513;51.222;6.480;2022-11-03T12:37:37;6.85;;;2.47;;
36497;SDS011;22513;51.222;6.480;2022-11-03T12:40:03;10.85;;;3.40;;
36497;SDS011;22513;51.222;6.480;2022-11-03T12:42:29;5.68;;;2.28;;
36497;SDS011;22513;51.222;6.480;2022-11-03T12:44:55;7.78;;;2.85;;
36497;SDS011;22513;51.222;6.480;2022-11-03T12:47:21;8.23;;;2.10;;
36497;SDS011;22513;51.222;6.480;2022-11-03T12:49:47;6.95;;;1.95;;
36497;SDS011;22513;51.222;6.480;2022-11-03T12:52:13;9.68;;;2.00;;
36497;SDS011;22513;51.222;6.480;2022-11-03T12:54:39;6.63;;;2.10;;
36497;SDS011;22513;51.222;6.480;2022-11-03T12:57:06;7.47;;;2.15;;
36497;SDS011;22513;51.222;6.480;2022-11-03T12:59:31;6.20;;;2.88;;
36497;SDS011;22513;51.222;6.480;2022-11-03T13:01:57;7.00;;;2.70;;
36497;SDS011;22513;51.222;6.480;2022-11-03T13:04:23;7.15;;;2.42;;
36497;SDS011;22513;51.222;6.480;2022-11-03T13:06:48;10.60;;;3.20;;
36497;SDS011;22513;51.222;6.480;2022-11-03T13:09:14;7.38;;;2.20;;
36497;SDS011;22513;51.222;6.480;2022-11-03T13:11:39;8.68;;;2.10;;
36497;SDS011;22513;51.222;6.480;2022-11-03T13:14:23;6.60;;;2.80;;
36497;SDS011;22513;51.222;6.480;2022-11-03T13:16:50;5.97;;;2.30;;
36497;SDS011;22513;51.222;6.480;2022-11-03T13:19:16;5.60;;;2.60;;
36497;SDS011;22513;51.222;6.480;2022-11-03T13:21:42;7.15;;;2.30;;
36497;SDS011;22513;51.222;6.480;2022-11-03T13:24:07;5.57;;;1.73;;
36497;SDS011;22513;51.222;6.480;2022-11-03T13:26:33;8.10;;;2.30;;
36497;SDS011;22513;51.222;6.480;2022-11-03T13:28:59;8.07;;;2.22;;
36497;SDS011;22513;51.222;6.480;2022-11-03T13:31:24;4.35;;;2.10;;
36497;SDS011;22513;51.222;6.480;2022-11-03T13:33:50;9.68;;;2.45;;
36497;SDS011;22513;51.222;6.480;2022-11-03T13:36:16;6.70;;;2.28;;
36497;SDS011;22513;51.222;6.480;2022-11-03T13:38:42;4.90;;;2.30;;
36497;SDS011;22513;51.222;6.480;2022-11-03T13:41:07;5.80;;;2.30;;
36497;SDS011;22513;51.222;6.480;2022-11-03T13:43:33;5.75;;;2.40;;
36497;SDS011;22513;51.222;6.480;2022-11-03T13:45:58;9.85;;;2.40;;
36497;SDS011;22513;51.222;6.480;2022-11-03T13:48:26;8.10;;;2.47;;
36497;SDS011;22513;51.222;6.480;2022-11-03T13:50:52;7.13;;;2.58;;
36497;SDS011;22513;51.222;6.480;2022-11-03T13:53:18;15.32;;;3.28;;
36497;SDS011;22513;51.222;6.480;2022-11-03T13:55:44;7.20;;;2.70;;
36497;SDS011;22513;51.222;6.480;2022-11-03T13:58:10;11.10;;;2.67;;
36497;SDS011;22513;51.222;6.480;2022-11-03T14:00:35;7.95;;;2.55;;
36497;SDS011;22513;51.222;6.480;2022-11-03T14:10:17;7.25;;;2.00;;
36497;SDS011;22513;51.222;6.480;2022-11-03T14:12:43;7.63;;;2.40;;
36497;SDS011;22513;51.222;6.480;2022-11-03T14:15:09;10.48;;;2.78;;
36497;SDS011;22513;51.222;6.480;2022-11-03T14:17:39;8.40;;;2.30;;
36497;SDS011;22513;51.222;6.480;2022-11-03T14:20:05;8.43;;;2.05;;
36497;SDS011;22513;51.222;6.480;2022-11-03T14:22:35;5.70;;;3.10;;
36497;SDS011;22513;51.222;6.480;2022-11-03T14:25:01;7.43;;;2.47;;
36497;SDS011;22513;51.222;6.480;2022-11-03T14:27:27;8.02;;;3.05;;
36497;SDS011;22513;51.222;6.480;2022-11-03T14:29:52;8.45;;;2.38;;
36497;SDS011;22513;51.222;6.480;2022-11-03T14:32:18;7.55;;;2.42;;
36497;SDS011;22513;51.222;6.480;2022-11-03T14:34:44;6.88;;;3.20;;
36497;SDS011;22513;51.222;6.480;2022-11-03T14:37:11;6.47;;;2.70;;
36497;SDS011;22513;51.222;6.480;2022-11-03T14:39:37;10.35;;;2.88;;
36497;SDS011;22513;51.222;6.480;2022-11-03T14:42:04;6.22;;;2.55;;
36497;SDS011;22513;51.222;6.480;2022-11-03T14:44:36;9.80;;;2.75;;
36497;SDS011;22513;51.222;6.480;2022-11-03T14:47:04;5.85;;;2.22;;
36497;SDS011;22513;51.222;6.480;2022-11-03T14:49:31;11.70;;;2.97;;
36497;SDS011;22513;51.222;6.480;2022-11-03T14:51:58;7.65;;;2.58;;
36497;SDS011;22513;51.222;6.480;2022-11-03T14:54:26;4.93;;;3.00;;
36497;SDS011;22513;51.222;6.480;2022-11-03T14:56:52;11.00;;;3.88;;
36497;SDS011;22513;51.222;6.480;2022-11-03T14:59:18;13.98;;;4.00;;
36497;SDS011;22513;51.222;6.480;2022-11-03T15:01:44;8.70;;;3.88;;
36497;SDS011;22513;51.222;6.480;2022-11-03T15:04:10;7.97;;;4.00;;
36497;SDS011;22513;51.222;6.480;2022-11-03T15:06:37;14.13;;;3.95;;
36497;SDS011;22513;51.222;6.480;2022-11-03T15:09:03;10.32;;;4.00;;
36497;SDS011;22513;51.222;6.480;2022-11-03T15:11:30;14.07;;;3.78;;
36497;SDS011;22513;51.222;6.480;2022-11-03T15:13:55;8.50;;;3.53;;
36497;SDS011;22513;51.222;6.480;2022-11-03T15:16:21;8.02;;;3.50;;
36497;SDS011;22513;51.222;6.480;2022-11-03T15:18:47;6.05;;;3.97;;
36497;SDS011;22513;51.222;6.480;2022-11-03T15:21:13;7.57;;;4.22;;
36497;SDS011;22513;51.222;6.480;2022-11-03T15:23:39;8.68;;;3.40;;
36497;SDS011;22513;51.222;6.480;2022-11-03T15:26:05;7.78;;;3.38;;
36497;SDS011;22513;51.222;6.480;2022-11-03T15:28:33;6.30;;;3.70;;
36497;SDS011;22513;51.222;6.480;2022-11-03T15:30:59;12.93;;;4.28;;
36497;SDS011;22513;51.222;6.480;2022-11-03T15:33:25;10.20;;;4.47;;
36497;SDS011;22513;51.222;6.480;2022-11-03T15:35:51;11.93;;;4.55;;
36497;SDS011;22513;51.222;6.480;2022-11-03T15:38:17;9.90;;;4.82;;
36497;SDS011;22513;51.222;6.480;2022-11-03T15:40:43;10.55;;;4.45;;
36497;SDS011;22513;51.222;6.480;2022-11-03T15:43:09;11.82;;;4.55;;
36497;SDS011;22513;51.222;6.480;2022-11-03T15:45:35;11.77;;;4.57;;
36497;SDS011;22513;51.222;6.480;2022-11-03T15:48:01;14.25;;;4.30;;
36497;SDS011;22513;51.222;6.480;2022-11-03T15:50:27;10.23;;;4.82;;
36497;SDS011;22513;51.222;6.480;2022-11-03T15:52:53;8.90;;;4.55;;
36497;SDS011;22513;51.222;6.480;2022-11-03T15:55:19;10.38;;;4.47;;
36497;SDS011;22513;51.222;6.480;2022-11-03T15:57:45;12.40;;;4.65;;
36497;SDS011;22513;51.222;6.480;2022-11-03T16:00:11;8.02;;;5.22;;
36497;SDS011;22513;51.222;6.480;2022-11-03T16:02:38;13.50;;;5.75;;
36497;SDS011;22513;51.222;6.480;2022-11-03T16:05:04;11.43;;;5.13;;
36497;SDS011;22513;51.222;6.480;2022-11-03T16:07:30;11.15;;;5.13;;
36497;SDS011;22513;51.222;6.480;2022-11-03T16:09:56;12.63;;;5.28;;
36497;SDS011;22513;51.222;6.480;2022-11-03T16:12:22;10.32;;;5.15;;
36497;SDS011;22513;51.222;6.480;2022-11-03T16:14:51;9.75;;;5.07;;
36497;SDS011;22513;51.222;6.480;2022-11-03T16:17:17;15.47;;;5.80;;
36497;SDS011;22513;51.222;6.480;2022-11-03T16:19:46;12.23;;;5.13;;
36497;SDS011;22513;51.222;6.480;2022-11-03T16:22:11;10.18;;;5.47;;
36497;SDS011;22513;51.222;6.480;2022-11-03T16:24:37;18.17;;;6.00;;
36497;SDS011;22513;51.222;6.480;2022-11-03T16:27:04;13.32;;;6.00;;
36497;SDS011;22513;51.222;6.480;2022-11-03T16:29:30;9.45;;;5.90;;
36497;SDS011;22513;51.222;6.480;2022-11-03T16:31:56;11.35;;;5.60;;
36497;SDS011;22513;51.222;6.480;2022-11-03T16:34:21;12.23;;;5.90;;
36497;SDS011;22513;51.222;6.480;2022-11-03T16:36:47;9.95;;;5.32;;
36497;SDS011;22513;51.222;6.480;2022-11-03T16:39:12;11.30;;;5.40;;
36497;SDS011;22513;51.222;6.480;2022-11-03T16:41:38;12.93;;;5.93;;
36497;SDS011;22513;51.222;6.480;2022-11-03T16:44:03;8.73;;;4.90;;
36497;SDS011;22513;51.222;6.480;2022-11-03T16:46:29;9.15;;;4.68;;